sensor_id;sensor_type;location;lat;lon;timestamp;P1;durP1;ratioP1;P2;durP2;ratioP2
21148;SDS011;10732;51.472;6.466;2023-02-26T00:01:14;9.07;;;2.90;;
21148;SDS011;10732;51.472;6.466;2023-02-26T00:03:41;7.87;;;3.20;;
21148;SDS011;10732;51.472;6.466;2023-02-26T00:06:07;6.70;;;2.70;;
21148;SDS011;10732;51.472;6.466;2023-02-26T00:08:33;5.60;;;2.50;;
21148;SDS011;10732;51.472;6.466;2023-02-26T00:10:59;7.63;;;2.90;;
21148;SDS011;10732;51.472;6.466;2023-02-26T00:13:26;5.63;;;2.30;;
21148;SDS011;10732;51.472;6.466;2023-02-26T00:15:54;5.97;;;2.50;;
21148;SDS011;10732;51.472;6.466;2023-02-26T00:18:23;6.63;;;2.57;;
21148;SDS011;10732;51.472;6.466;2023-02-26T00:20:48;6.60;;;2.50;;
21148;SDS011;10732;51.472;6.466;2023-02-26T00:23:14;8.30;;;2.70;;
21148;SDS011;10732;51.472;6.466;2023-02-26T00:25:41;7.80;;;2.90;;
21148;SDS011;10732;51.472;6.466;2023-02-26T00:28:07;9.07;;;2.67;;
21148;SDS011;10732;51.472;6.466;2023-02-26T00:30:33;7.37;;;3.27;;
21148;SDS011;10732;51.472;6.466;2023-02-26T00:32:59;9.57;;;3.03;;
21148;SDS011;10732;51.472;6.466;2023-02-26T00:35:26;7.70;;;2.70;;
21148;SDS011;10732;51.472;6.466;2023-02-26T00:37:57;10.20;;;3.30;;
21148;SDS011;10732;51.472;6.466;2023-02-26T00:43:12;10.90;;;3.10;;
21148;SDS011;10732;51.472;6.466;2023-02-26T00:45:46;7.47;;;2.70;;
21148;SDS011;10732;51.472;6.466;2023-02-26T00:51:29;7.40;;;3.20;;
21148;SDS011;10732;51.472;6.466;2023-02-26T00:54:03;8.03;;;3.20;;
21148;SDS011;10732;51.472;6.466;2023-02-26T00:56:34;6.93;;;3.00;;
21148;SDS011;10732;51.472;6.466;2023-02-26T00:59:01;6.30;;;2.73;;
21148;SDS011;10732;51.472;6.466;2023-02-26T01:01:27;8.20;;;2.60;;
21148;SDS011;10732;51.472;6.466;2023-02-26T01:03:52;5.10;;;2.50;;
21148;SDS011;10732;51.472;6.466;2023-02-26T01:06:19;9.47;;;2.53;;
21148;SDS011;10732;51.472;6.466;2023-02-26T01:08:53;8.40;;;2.50;;
21148;SDS011;10732;51.472;6.466;2023-02-26T01:11:25;4.47;;;2.50;;
21148;SDS011;10732;51.472;6.466;2023-02-26T01:13:51;9.80;;;2.43;;
21148;SDS011;10732;51.472;6.466;2023-02-26T01:16:19;7.87;;;2.20;;
21148;SDS011;10732;51.472;6.466;2023-02-26T01:18:53;6.10;;;2.20;;
21148;SDS011;10732;51.472;6.466;2023-02-26T01:21:32;7.07;;;2.10;;
21148;SDS011;10732;51.472;6.466;2023-02-26T01:24:03;4.60;;;2.30;;
21148;SDS011;10732;51.472;6.466;2023-02-26T01:26:31;5.80;;;2.10;;
21148;SDS011;10732;51.472;6.466;2023-02-26T01:28:57;5.30;;;1.90;;
21148;SDS011;10732;51.472;6.466;2023-02-26T01:34:14;3.23;;;1.87;;
21148;SDS011;10732;51.472;6.466;2023-02-26T01:36:46;4.27;;;2.00;;
21148;SDS011;10732;51.472;6.466;2023-02-26T01:42:42;7.67;;;2.20;;
21148;SDS011;10732;51.472;6.466;2023-02-26T01:45:15;5.00;;;1.67;;
21148;SDS011;10732;51.472;6.466;2023-02-26T01:48:19;5.80;;;2.30;;
21148;SDS011;10732;51.472;6.466;2023-02-26T01:50:43;5.73;;;1.97;;
21148;SDS011;10732;51.472;6.466;2023-02-26T01:53:20;6.40;;;1.70;;
21148;SDS011;10732;51.472;6.466;2023-02-26T01:55:59;5.77;;;1.50;;
21148;SDS011;10732;51.472;6.466;2023-02-26T01:58:45;5.17;;;1.70;;
21148;SDS011;10732;51.472;6.466;2023-02-26T02:01:14;4.47;;;2.10;;
21148;SDS011;10732;51.472;6.466;2023-02-26T02:03:39;5.33;;;1.97;;
21148;SDS011;10732;51.472;6.466;2023-02-26T02:06:13;4.97;;;1.80;;
21148;SDS011;10732;51.472;6.466;2023-02-26T02:08:43;5.80;;;1.70;;
21148;SDS011;10732;51.472;6.466;2023-02-26T02:11:10;5.30;;;2.03;;
21148;SDS011;10732;51.472;6.466;2023-02-26T02:33:04;5.93;;;1.77;;
21148;SDS011;10732;51.472;6.466;2023-02-26T02:35:49;6.93;;;2.20;;
21148;SDS011;10732;51.472;6.466;2023-02-26T02:38:36;5.60;;;1.93;;
21148;SDS011;10732;51.472;6.466;2023-02-26T02:41:10;6.03;;;2.00;;
21148;SDS011;10732;51.472;6.466;2023-02-26T02:43:42;5.23;;;2.10;;
21148;SDS011;10732;51.472;6.466;2023-02-26T02:46:10;5.87;;;2.20;;
21148;SDS011;10732;51.472;6.466;2023-02-26T02:48:41;4.13;;;2.10;;
21148;SDS011;10732;51.472;6.466;2023-02-26T02:51:13;5.80;;;2.10;;
21148;SDS011;10732;51.472;6.466;2023-02-26T02:53:49;5.23;;;2.07;;
21148;SDS011;10732;51.472;6.466;2023-02-26T02:56:26;3.73;;;2.13;;
21148;SDS011;10732;51.472;6.466;2023-02-26T02:59:11;6.87;;;2.30;;
21148;SDS011;10732;51.472;6.466;2023-02-26T03:01:43;6.33;;;2.00;;
21148;SDS011;10732;51.472;6.466;2023-02-26T03:04:13;6.47;;;2.03;;
21148;SDS011;10732;51.472;6.466;2023-02-26T03:06:40;5.63;;;2.10;;
21148;SDS011;10732;51.472;6.466;2023-02-26T03:09:08;7.30;;;2.30;;
21148;SDS011;10732;51.472;6.466;2023-02-26T03:11:34;9.97;;;2.30;;
21148;SDS011;10732;51.472;6.466;2023-02-26T03:14:00;7.83;;;2.13;;
21148;SDS011;10732;51.472;6.466;2023-02-26T03:25:03;5.30;;;2.27;;
21148;SDS011;10732;51.472;6.466;2023-02-26T03:33:29;7.47;;;2.17;;
21148;SDS011;10732;51.472;6.466;2023-02-26T03:38:47;7.00;;;2.30;;
21148;SDS011;10732;51.472;6.466;2023-02-26T03:41:44;7.93;;;2.30;;
21148;SDS011;10732;51.472;6.466;2023-02-26T03:44:24;6.33;;;2.00;;
21148;SDS011;10732;51.472;6.466;2023-02-26T03:46:55;6.30;;;2.30;;
21148;SDS011;10732;51.472;6.466;2023-02-26T03:49:25;4.20;;;2.33;;
21148;SDS011;10732;51.472;6.466;2023-02-26T03:51:57;7.37;;;2.00;;
21148;SDS011;10732;51.472;6.466;2023-02-26T03:54:26;6.70;;;2.27;;
21148;SDS011;10732;51.472;6.466;2023-02-26T03:56:56;5.77;;;2.23;;
21148;SDS011;10732;51.472;6.466;2023-02-26T03:59:22;7.93;;;2.10;;
21148;SDS011;10732;51.472;6.466;2023-02-26T04:01:53;7.73;;;2.20;;
21148;SDS011;10732;51.472;6.466;2023-02-26T04:04:27;6.20;;;2.07;;
21148;SDS011;10732;51.472;6.466;2023-02-26T04:06:59;3.90;;;2.07;;
21148;SDS011;10732;51.472;6.466;2023-02-26T04:09:25;6.87;;;2.20;;
21148;SDS011;10732;51.472;6.466;2023-02-26T04:11:52;4.97;;;2.00;;
21148;SDS011;10732;51.472;6.466;2023-02-26T04:14:18;6.13;;;2.13;;
21148;SDS011;10732;51.472;6.466;2023-02-26T04:16:44;3.80;;;1.90;;
21148;SDS011;10732;51.472;6.466;2023-02-26T04:19:09;5.53;;;2.00;;
21148;SDS011;10732;51.472;6.466;2023-02-26T04:21:35;3.20;;;1.73;;
21148;SDS011;10732;51.472;6.466;2023-02-26T04:24:01;6.83;;;2.10;;
21148;SDS011;10732;51.472;6.466;2023-02-26T04:26:26;5.67;;;2.10;;
21148;SDS011;10732;51.472;6.466;2023-02-26T04:28:52;6.40;;;2.03;;
21148;SDS011;10732;51.472;6.466;2023-02-26T04:31:17;6.47;;;1.80;;
21148;SDS011;10732;51.472;6.466;2023-02-26T04:33:43;6.40;;;2.13;;
21148;SDS011;10732;51.472;6.466;2023-02-26T04:36:09;9.77;;;2.33;;
21148;SDS011;10732;51.472;6.466;2023-02-26T04:38:34;5.10;;;1.90;;
21148;SDS011;10732;51.472;6.466;2023-02-26T04:41:00;7.37;;;2.40;;
21148;SDS011;10732;51.472;6.466;2023-02-26T04:43:26;3.43;;;1.80;;
21148;SDS011;10732;51.472;6.466;2023-02-26T04:45:51;5.33;;;1.93;;
21148;SDS011;10732;51.472;6.466;2023-02-26T04:48:17;7.77;;;2.30;;
21148;SDS011;10732;51.472;6.466;2023-02-26T04:50:43;6.20;;;2.23;;
21148;SDS011;10732;51.472;6.466;2023-02-26T04:53:09;5.33;;;1.87;;
21148;SDS011;10732;51.472;6.466;2023-02-26T04:55:35;5.37;;;1.90;;
21148;SDS011;10732;51.472;6.466;2023-02-26T04:58:01;6.33;;;1.70;;
21148;SDS011;10732;51.472;6.466;2023-02-26T05:00:26;7.90;;;2.23;;
21148;SDS011;10732;51.472;6.466;2023-02-26T05:02:52;6.03;;;1.90;;
21148;SDS011;10732;51.472;6.466;2023-02-26T05:05:18;7.73;;;2.10;;
21148;SDS011;10732;51.472;6.466;2023-02-26T05:07:43;7.00;;;1.80;;
21148;SDS011;10732;51.472;6.466;2023-02-26T05:10:09;5.43;;;2.10;;
21148;SDS011;10732;51.472;6.466;2023-02-26T05:12:35;6.97;;;2.17;;
21148;SDS011;10732;51.472;6.466;2023-02-26T05:15:01;8.20;;;2.00;;
21148;SDS011;10732;51.472;6.466;2023-02-26T05:17:27;5.13;;;2.27;;
21148;SDS011;10732;51.472;6.466;2023-02-26T05:19:53;5.33;;;2.10;;
21148;SDS011;10732;51.472;6.466;2023-02-26T05:22:18;5.87;;;1.87;;
21148;SDS011;10732;51.472;6.466;2023-02-26T05:24:44;6.63;;;1.97;;
21148;SDS011;10732;51.472;6.466;2023-02-26T05:27:10;10.83;;;2.43;;
21148;SDS011;10732;51.472;6.466;2023-02-26T05:29:35;6.50;;;2.07;;
21148;SDS011;10732;51.472;6.466;2023-02-26T05:32:01;6.20;;;1.90;;
21148;SDS011;10732;51.472;6.466;2023-02-26T05:34:27;7.83;;;1.80;;
21148;SDS011;10732;51.472;6.466;2023-02-26T05:36:53;3.43;;;1.83;;
21148;SDS011;10732;51.472;6.466;2023-02-26T05:39:19;5.40;;;2.17;;
21148;SDS011;10732;51.472;6.466;2023-02-26T05:41:44;5.13;;;1.90;;
21148;SDS011;10732;51.472;6.466;2023-02-26T05:44:11;5.10;;;1.80;;
21148;SDS011;10732;51.472;6.466;2023-02-26T05:46:37;7.30;;;2.13;;
21148;SDS011;10732;51.472;6.466;2023-02-26T05:49:02;7.97;;;2.13;;
21148;SDS011;10732;51.472;6.466;2023-02-26T05:51:28;6.53;;;1.90;;
21148;SDS011;10732;51.472;6.466;2023-02-26T05:53:53;9.03;;;1.83;;
21148;SDS011;10732;51.472;6.466;2023-02-26T05:56:19;6.37;;;2.07;;
21148;SDS011;10732;51.472;6.466;2023-02-26T05:58:45;4.83;;;1.90;;
21148;SDS011;10732;51.472;6.466;2023-02-26T06:01:10;4.17;;;1.67;;
21148;SDS011;10732;51.472;6.466;2023-02-26T06:03:37;6.57;;;1.90;;
21148;SDS011;10732;51.472;6.466;2023-02-26T06:06:07;7.70;;;2.03;;
21148;SDS011;10732;51.472;6.466;2023-02-26T06:08:38;5.30;;;1.67;;
21148;SDS011;10732;51.472;6.466;2023-02-26T06:11:04;6.67;;;2.10;;
21148;SDS011;10732;51.472;6.466;2023-02-26T06:13:29;4.87;;;1.87;;
21148;SDS011;10732;51.472;6.466;2023-02-26T06:15:55;5.07;;;2.10;;
21148;SDS011;10732;51.472;6.466;2023-02-26T06:18:21;5.57;;;2.07;;
21148;SDS011;10732;51.472;6.466;2023-02-26T06:20:46;5.10;;;1.90;;
21148;SDS011;10732;51.472;6.466;2023-02-26T06:23:12;6.20;;;1.83;;
21148;SDS011;10732;51.472;6.466;2023-02-26T06:25:39;7.20;;;1.90;;
21148;SDS011;10732;51.472;6.466;2023-02-26T06:28:05;7.77;;;2.03;;
21148;SDS011;10732;51.472;6.466;2023-02-26T06:30:31;11.77;;;2.10;;
21148;SDS011;10732;51.472;6.466;2023-02-26T06:32:57;5.40;;;2.13;;
21148;SDS011;10732;51.472;6.466;2023-02-26T06:35:22;3.53;;;1.70;;
21148;SDS011;10732;51.472;6.466;2023-02-26T06:37:48;6.83;;;1.77;;
21148;SDS011;10732;51.472;6.466;2023-02-26T06:40:14;7.37;;;1.87;;
21148;SDS011;10732;51.472;6.466;2023-02-26T06:42:39;7.57;;;2.43;;
21148;SDS011;10732;51.472;6.466;2023-02-26T06:45:05;9.53;;;1.90;;
21148;SDS011;10732;51.472;6.466;2023-02-26T06:47:31;5.73;;;1.73;;
21148;SDS011;10732;51.472;6.466;2023-02-26T06:49:56;4.67;;;1.83;;
21148;SDS011;10732;51.472;6.466;2023-02-26T06:52:22;4.47;;;1.60;;
21148;SDS011;10732;51.472;6.466;2023-02-26T06:54:47;6.37;;;2.10;;
21148;SDS011;10732;51.472;6.466;2023-02-26T06:57:13;3.63;;;1.60;;
21148;SDS011;10732;51.472;6.466;2023-02-26T06:59:39;5.53;;;1.70;;
21148;SDS011;10732;51.472;6.466;2023-02-26T07:02:04;6.60;;;1.90;;
21148;SDS011;10732;51.472;6.466;2023-02-26T07:04:30;8.17;;;2.10;;
21148;SDS011;10732;51.472;6.466;2023-02-26T07:06:56;4.53;;;2.00;;
21148;SDS011;10732;51.472;6.466;2023-02-26T07:09:21;4.37;;;1.80;;
21148;SDS011;10732;51.472;6.466;2023-02-26T07:11:47;5.03;;;1.70;;
21148;SDS011;10732;51.472;6.466;2023-02-26T07:14:12;5.27;;;1.80;;
21148;SDS011;10732;51.472;6.466;2023-02-26T07:16:38;4.10;;;1.60;;
21148;SDS011;10732;51.472;6.466;2023-02-26T07:19:03;8.00;;;1.90;;
21148;SDS011;10732;51.472;6.466;2023-02-26T07:21:29;6.37;;;1.93;;
21148;SDS011;10732;51.472;6.466;2023-02-26T07:23:54;3.50;;;1.70;;
21148;SDS011;10732;51.472;6.466;2023-02-26T07:26:20;7.37;;;2.10;;
21148;SDS011;10732;51.472;6.466;2023-02-26T07:28:46;6.40;;;2.13;;
21148;SDS011;10732;51.472;6.466;2023-02-26T07:31:11;7.53;;;2.43;;
21148;SDS011;10732;51.472;6.466;2023-02-26T07:33:37;5.07;;;1.70;;
21148;SDS011;10732;51.472;6.466;2023-02-26T07:36:03;4.57;;;1.80;;
21148;SDS011;10732;51.472;6.466;2023-02-26T07:38:29;5.37;;;1.77;;
21148;SDS011;10732;51.472;6.466;2023-02-26T07:40:55;5.43;;;2.60;;
21148;SDS011;10732;51.472;6.466;2023-02-26T07:43:21;6.30;;;2.93;;
21148;SDS011;10732;51.472;6.466;2023-02-26T07:45:51;5.87;;;2.80;;
21148;SDS011;10732;51.472;6.466;2023-02-26T07:48:17;5.80;;;2.20;;
21148;SDS011;10732;51.472;6.466;2023-02-26T07:50:43;6.63;;;2.90;;
21148;SDS011;10732;51.472;6.466;2023-02-26T07:53:08;4.63;;;2.00;;
21148;SDS011;10732;51.472;6.466;2023-02-26T07:55:34;5.57;;;2.23;;
21148;SDS011;10732;51.472;6.466;2023-02-26T07:58:00;7.03;;;2.60;;
21148;SDS011;10732;51.472;6.466;2023-02-26T08:00:25;4.93;;;2.47;;
21148;SDS011;10732;51.472;6.466;2023-02-26T08:02:51;4.70;;;2.27;;
21148;SDS011;10732;51.472;6.466;2023-02-26T08:05:16;7.00;;;2.63;;
21148;SDS011;10732;51.472;6.466;2023-02-26T08:07:42;6.00;;;2.40;;
21148;SDS011;10732;51.472;6.466;2023-02-26T08:10:08;7.03;;;2.10;;
21148;SDS011;10732;51.472;6.466;2023-02-26T08:12:35;5.73;;;2.10;;
21148;SDS011;10732;51.472;6.466;2023-02-26T08:15:00;3.23;;;1.60;;
21148;SDS011;10732;51.472;6.466;2023-02-26T08:17:26;4.50;;;1.60;;
21148;SDS011;10732;51.472;6.466;2023-02-26T08:19:52;4.97;;;1.77;;
21148;SDS011;10732;51.472;6.466;2023-02-26T08:22:18;4.75;;;1.80;;
21148;SDS011;10732;51.472;6.466;2023-02-26T08:24:44;5.00;;;1.75;;
21148;SDS011;10732;51.472;6.466;2023-02-26T08:27:10;4.50;;;1.70;;
21148;SDS011;10732;51.472;6.466;2023-02-26T08:29:36;2.85;;;1.45;;
21148;SDS011;10732;51.472;6.466;2023-02-26T08:32:01;4.05;;;1.40;;
21148;SDS011;10732;51.472;6.466;2023-02-26T08:34:27;4.10;;;1.83;;
21148;SDS011;10732;51.472;6.466;2023-02-26T08:36:52;4.18;;;1.83;;
21148;SDS011;10732;51.472;6.466;2023-02-26T08:39:18;2.25;;;1.40;;
21148;SDS011;10732;51.472;6.466;2023-02-26T08:41:43;6.65;;;1.67;;
21148;SDS011;10732;51.472;6.466;2023-02-26T08:44:09;3.70;;;1.92;;
21148;SDS011;10732;51.472;6.466;2023-02-26T08:46:34;4.28;;;1.70;;
21148;SDS011;10732;51.472;6.466;2023-02-26T08:49:00;6.03;;;1.83;;
21148;SDS011;10732;51.472;6.466;2023-02-26T08:51:26;4.30;;;1.80;;
21148;SDS011;10732;51.472;6.466;2023-02-26T08:53:51;3.63;;;1.50;;
21148;SDS011;10732;51.472;6.466;2023-02-26T08:56:17;3.47;;;1.60;;
21148;SDS011;10732;51.472;6.466;2023-02-26T08:58:42;4.55;;;1.70;;
21148;SDS011;10732;51.472;6.466;2023-02-26T09:01:08;4.25;;;1.70;;
21148;SDS011;10732;51.472;6.466;2023-02-26T09:03:34;5.15;;;1.98;;
21148;SDS011;10732;51.472;6.466;2023-02-26T09:06:00;7.93;;;1.70;;
21148;SDS011;10732;51.472;6.466;2023-02-26T09:08:25;4.00;;;1.77;;
21148;SDS011;10732;51.472;6.466;2023-02-26T09:10:51;5.05;;;2.20;;
21148;SDS011;10732;51.472;6.466;2023-02-26T09:13:17;5.47;;;1.98;;
21148;SDS011;10732;51.472;6.466;2023-02-26T09:15:42;4.13;;;1.85;;
21148;SDS011;10732;51.472;6.466;2023-02-26T09:18:08;3.38;;;1.60;;
21148;SDS011;10732;51.472;6.466;2023-02-26T09:20:39;2.75;;;1.70;;
21148;SDS011;10732;51.472;6.466;2023-02-26T09:23:06;4.03;;;1.92;;
21148;SDS011;10732;51.472;6.466;2023-02-26T09:25:32;3.63;;;1.40;;
21148;SDS011;10732;51.472;6.466;2023-02-26T09:27:58;3.93;;;1.70;;
21148;SDS011;10732;51.472;6.466;2023-02-26T09:30:23;2.63;;;1.20;;
21148;SDS011;10732;51.472;6.466;2023-02-26T09:32:49;3.03;;;1.48;;
21148;SDS011;10732;51.472;6.466;2023-02-26T09:35:14;3.10;;;1.30;;
21148;SDS011;10732;51.472;6.466;2023-02-26T09:37:40;3.40;;;1.35;;
21148;SDS011;10732;51.472;6.466;2023-02-26T09:40:05;4.38;;;1.52;;
21148;SDS011;10732;51.472;6.466;2023-02-26T09:42:42;3.85;;;1.38;;
21148;SDS011;10732;51.472;6.466;2023-02-26T09:45:24;3.33;;;1.30;;
21148;SDS011;10732;51.472;6.466;2023-02-26T09:47:54;3.38;;;1.17;;
21148;SDS011;10732;51.472;6.466;2023-02-26T09:50:40;3.13;;;0.95;;
21148;SDS011;10732;51.472;6.466;2023-02-26T09:55:45;3.13;;;1.00;;
21148;SDS011;10732;51.472;6.466;2023-02-26T10:00:57;2.53;;;1.13;;
21148;SDS011;10732;51.472;6.466;2023-02-26T10:07:24;2.50;;;1.23;;
21148;SDS011;10732;51.472;6.466;2023-02-26T10:09:43;3.53;;;1.20;;
21148;SDS011;10732;51.472;6.466;2023-02-26T10:12:19;4.18;;;1.17;;
21148;SDS011;10732;51.472;6.466;2023-02-26T10:14:54;4.85;;;1.10;;
21148;SDS011;10732;51.472;6.466;2023-02-26T10:20:33;6.13;;;1.38;;
21148;SDS011;10732;51.472;6.466;2023-02-26T10:23:24;3.10;;;1.10;;
21148;SDS011;10732;51.472;6.466;2023-02-26T10:26:04;2.38;;;1.10;;
21148;SDS011;10732;51.472;6.466;2023-02-26T10:37:21;2.22;;;1.05;;
21148;SDS011;10732;51.472;6.466;2023-02-26T10:40:30;1.90;;;1.00;;
21148;SDS011;10732;51.472;6.466;2023-02-26T10:48:19;3.70;;;1.08;;
21148;SDS011;10732;51.472;6.466;2023-02-26T10:50:57;2.42;;;1.00;;
21148;SDS011;10732;51.472;6.466;2023-02-26T10:53:25;1.52;;;0.80;;
21148;SDS011;10732;51.472;6.466;2023-02-26T10:55:56;3.20;;;1.20;;
21148;SDS011;10732;51.472;6.466;2023-02-26T10:58:30;3.13;;;1.08;;
21148;SDS011;10732;51.472;6.466;2023-02-26T11:00:56;2.25;;;0.90;;
21148;SDS011;10732;51.472;6.466;2023-02-26T11:03:36;2.50;;;1.02;;
21148;SDS011;10732;51.472;6.466;2023-02-26T11:06:04;1.73;;;0.80;;
21148;SDS011;10732;51.472;6.466;2023-02-26T11:08:31;0.80;;;0.60;;
21148;SDS011;10732;51.472;6.466;2023-02-26T11:11:07;1.38;;;0.90;;
21148;SDS011;10732;51.472;6.466;2023-02-26T11:13:37;5.47;;;0.95;;
21148;SDS011;10732;51.472;6.466;2023-02-26T11:16:24;1.45;;;0.85;;
21148;SDS011;10732;51.472;6.466;2023-02-26T11:18:53;1.60;;;0.88;;
21148;SDS011;10732;51.472;6.466;2023-02-26T11:21:23;2.45;;;0.98;;
21148;SDS011;10732;51.472;6.466;2023-02-26T11:23:57;2.15;;;0.80;;
21148;SDS011;10732;51.472;6.466;2023-02-26T11:26:45;2.60;;;0.90;;
21148;SDS011;10732;51.472;6.466;2023-02-26T11:29:19;2.75;;;0.93;;
21148;SDS011;10732;51.472;6.466;2023-02-26T11:31:55;2.90;;;0.95;;
21148;SDS011;10732;51.472;6.466;2023-02-26T11:34:25;2.20;;;1.15;;
21148;SDS011;10732;51.472;6.466;2023-02-26T11:36:52;2.45;;;1.52;;
21148;SDS011;10732;51.472;6.466;2023-02-26T11:39:21;4.13;;;1.98;;
21148;SDS011;10732;51.472;6.466;2023-02-26T11:41:49;3.97;;;1.10;;
21148;SDS011;10732;51.472;6.466;2023-02-26T11:44:19;2.42;;;1.20;;
21148;SDS011;10732;51.472;6.466;2023-02-26T11:46:56;1.65;;;1.40;;
21148;SDS011;10732;51.472;6.466;2023-02-26T11:49:23;3.00;;;0.88;;
21148;SDS011;10732;51.472;6.466;2023-02-26T11:54:30;1.98;;;0.90;;
21148;SDS011;10732;51.472;6.466;2023-02-26T11:57:00;4.00;;;2.05;;
21148;SDS011;10732;51.472;6.466;2023-02-26T11:59:30;1.77;;;0.82;;
21148;SDS011;10732;51.472;6.466;2023-02-26T12:02:00;2.10;;;0.93;;
21148;SDS011;10732;51.472;6.466;2023-02-26T12:04:28;2.70;;;0.90;;
21148;SDS011;10732;51.472;6.466;2023-02-26T12:06:55;1.77;;;1.00;;
21148;SDS011;10732;51.472;6.466;2023-02-26T12:09:21;1.58;;;0.82;;
21148;SDS011;10732;51.472;6.466;2023-02-26T12:14:43;6.32;;;3.33;;
21148;SDS011;10732;51.472;6.466;2023-02-26T12:17:40;2.42;;;1.20;;
21148;SDS011;10732;51.472;6.466;2023-02-26T12:25:55;1.70;;;0.90;;
21148;SDS011;10732;51.472;6.466;2023-02-26T12:37:02;1.75;;;0.90;;
21148;SDS011;10732;51.472;6.466;2023-02-26T12:59:41;2.45;;;1.10;;
21148;SDS011;10732;51.472;6.466;2023-02-26T13:13:26;2.25;;;0.80;;
21148;SDS011;10732;51.472;6.466;2023-02-26T13:19:05;2.10;;;0.90;;
21148;SDS011;10732;51.472;6.466;2023-02-26T13:21:46;3.22;;;1.60;;
21148;SDS011;10732;51.472;6.466;2023-02-26T13:24:23;2.60;;;1.08;;
21148;SDS011;10732;51.472;6.466;2023-02-26T13:26:52;1.10;;;0.65;;
21148;SDS011;10732;51.472;6.466;2023-02-26T13:29:29;2.75;;;0.85;;
21148;SDS011;10732;51.472;6.466;2023-02-26T13:32:10;0.95;;;0.80;;
21148;SDS011;10732;51.472;6.466;2023-02-26T13:34:51;1.15;;;0.80;;
21148;SDS011;10732;51.472;6.466;2023-02-26T13:37:41;2.05;;;1.05;;
21148;SDS011;10732;51.472;6.466;2023-02-26T13:43:02;2.65;;;0.93;;
21148;SDS011;10732;51.472;6.466;2023-02-26T13:58:37;2.55;;;1.00;;
21148;SDS011;10732;51.472;6.466;2023-02-26T14:01:09;2.47;;;1.10;;
21148;SDS011;10732;51.472;6.466;2023-02-26T14:03:44;3.95;;;1.00;;
21148;SDS011;10732;51.472;6.466;2023-02-26T14:09:14;2.17;;;0.80;;
21148;SDS011;10732;51.472;6.466;2023-02-26T14:11:56;1.58;;;1.00;;
21148;SDS011;10732;51.472;6.466;2023-02-26T14:14:34;1.85;;;0.82;;
21148;SDS011;10732;51.472;6.466;2023-02-26T14:19:35;2.40;;;0.80;;
21148;SDS011;10732;51.472;6.466;2023-02-26T14:22:19;1.83;;;0.80;;
21148;SDS011;10732;51.472;6.466;2023-02-26T14:28:16;3.03;;;1.00;;
21148;SDS011;10732;51.472;6.466;2023-02-26T14:33:36;1.50;;;0.90;;
21148;SDS011;10732;51.472;6.466;2023-02-26T14:36:16;3.30;;;1.63;;
21148;SDS011;10732;51.472;6.466;2023-02-26T14:38:45;4.63;;;1.40;;
21148;SDS011;10732;51.472;6.466;2023-02-26T14:41:24;2.47;;;1.08;;
21148;SDS011;10732;51.472;6.466;2023-02-26T14:46:39;1.98;;;1.10;;
21148;SDS011;10732;51.472;6.466;2023-02-26T14:49:09;2.35;;;0.90;;
21148;SDS011;10732;51.472;6.466;2023-02-26T14:54:32;2.58;;;1.50;;
21148;SDS011;10732;51.472;6.466;2023-02-26T15:00:04;3.22;;;1.20;;
21148;SDS011;10732;51.472;6.466;2023-02-26T15:08:19;4.00;;;1.65;;
21148;SDS011;10732;51.472;6.466;2023-02-26T15:11:03;3.42;;;1.00;;
21148;SDS011;10732;51.472;6.466;2023-02-26T15:13:58;3.08;;;1.25;;
21148;SDS011;10732;51.472;6.466;2023-02-26T15:16:52;4.47;;;1.20;;
21148;SDS011;10732;51.472;6.466;2023-02-26T15:19:29;2.67;;;0.90;;
21148;SDS011;10732;51.472;6.466;2023-02-26T15:22:27;1.77;;;1.00;;
21148;SDS011;10732;51.472;6.466;2023-02-26T15:25:22;2.20;;;0.95;;
21148;SDS011;10732;51.472;6.466;2023-02-26T15:27:58;2.58;;;0.95;;
21148;SDS011;10732;51.472;6.466;2023-02-26T15:30:25;2.88;;;1.20;;
21148;SDS011;10732;51.472;6.466;2023-02-26T15:32:56;2.63;;;1.10;;
21148;SDS011;10732;51.472;6.466;2023-02-26T15:35:23;2.33;;;1.27;;
21148;SDS011;10732;51.472;6.466;2023-02-26T15:37:53;2.33;;;1.10;;
21148;SDS011;10732;51.472;6.466;2023-02-26T15:40:22;3.83;;;1.20;;
21148;SDS011;10732;51.472;6.466;2023-02-26T15:42:50;2.40;;;1.10;;
21148;SDS011;10732;51.472;6.466;2023-02-26T15:45:21;2.53;;;1.15;;
21148;SDS011;10732;51.472;6.466;2023-02-26T15:48:10;2.40;;;1.10;;
21148;SDS011;10732;51.472;6.466;2023-02-26T15:50:42;2.45;;;1.13;;
21148;SDS011;10732;51.472;6.466;2023-02-26T15:53:11;1.70;;;1.13;;
21148;SDS011;10732;51.472;6.466;2023-02-26T15:55:52;1.38;;;1.23;;
21148;SDS011;10732;51.472;6.466;2023-02-26T15:58:37;3.40;;;1.20;;
21148;SDS011;10732;51.472;6.466;2023-02-26T16:01:04;4.00;;;1.38;;
21148;SDS011;10732;51.472;6.466;2023-02-26T16:03:32;1.73;;;0.98;;
21148;SDS011;10732;51.472;6.466;2023-02-26T16:06:00;3.33;;;1.40;;
21148;SDS011;10732;51.472;6.466;2023-02-26T16:08:26;3.25;;;1.33;;
21148;SDS011;10732;51.472;6.466;2023-02-26T16:10:52;2.60;;;1.00;;
21148;SDS011;10732;51.472;6.466;2023-02-26T16:13:25;2.95;;;1.20;;
21148;SDS011;10732;51.472;6.466;2023-02-26T16:16:04;5.38;;;2.60;;
21148;SDS011;10732;51.472;6.466;2023-02-26T16:18:39;2.15;;;1.30;;
21148;SDS011;10732;51.472;6.466;2023-02-26T16:21:07;1.70;;;1.00;;
21148;SDS011;10732;51.472;6.466;2023-02-26T16:23:38;1.85;;;1.20;;
21148;SDS011;10732;51.472;6.466;2023-02-26T16:26:11;4.30;;;1.20;;
21148;SDS011;10732;51.472;6.466;2023-02-26T16:28:44;1.95;;;0.85;;
21148;SDS011;10732;51.472;6.466;2023-02-26T16:31:18;3.05;;;1.20;;
21148;SDS011;10732;51.472;6.466;2023-02-26T16:33:56;3.72;;;1.27;;
21148;SDS011;10732;51.472;6.466;2023-02-26T16:36:31;3.28;;;1.20;;
21148;SDS011;10732;51.472;6.466;2023-02-26T16:39:09;2.25;;;1.10;;
21148;SDS011;10732;51.472;6.466;2023-02-26T16:41:45;4.75;;;1.42;;
21148;SDS011;10732;51.472;6.466;2023-02-26T16:47:08;4.35;;;1.60;;
21148;SDS011;10732;51.472;6.466;2023-02-26T16:49:35;3.03;;;1.67;;
21148;SDS011;10732;51.472;6.466;2023-02-26T16:52:03;3.58;;;2.00;;
21148;SDS011;10732;51.472;6.466;2023-02-26T16:54:30;3.40;;;2.20;;
21148;SDS011;10732;51.472;6.466;2023-02-26T16:57:06;2.83;;;1.90;;
21148;SDS011;10732;51.472;6.466;2023-02-26T16:59:57;3.38;;;1.80;;
21148;SDS011;10732;51.472;6.466;2023-02-26T17:02:30;2.90;;;1.25;;
21148;SDS011;10732;51.472;6.466;2023-02-26T17:04:59;4.65;;;2.28;;
21148;SDS011;10732;51.472;6.466;2023-02-26T17:07:35;5.53;;;2.95;;
21148;SDS011;10732;51.472;6.466;2023-02-26T17:10:17;4.43;;;1.90;;
21148;SDS011;10732;51.472;6.466;2023-02-26T17:12:47;3.58;;;1.80;;
21148;SDS011;10732;51.472;6.466;2023-02-26T17:15:17;4.10;;;1.80;;
21148;SDS011;10732;51.472;6.466;2023-02-26T17:17:45;3.40;;;2.10;;
21148;SDS011;10732;51.472;6.466;2023-02-26T17:20:11;4.63;;;2.88;;
21148;SDS011;10732;51.472;6.466;2023-02-26T17:22:37;8.40;;;4.95;;
21148;SDS011;10732;51.472;6.466;2023-02-26T17:25:08;10.27;;;5.43;;
21148;SDS011;10732;51.472;6.466;2023-02-26T17:27:38;9.20;;;5.80;;
21148;SDS011;10732;51.472;6.466;2023-02-26T17:30:04;7.07;;;3.90;;
21148;SDS011;10732;51.472;6.466;2023-02-26T17:32:31;5.73;;;3.67;;
21148;SDS011;10732;51.472;6.466;2023-02-26T17:34:57;6.18;;;3.50;;
21148;SDS011;10732;51.472;6.466;2023-02-26T17:37:24;5.93;;;3.40;;
21148;SDS011;10732;51.472;6.466;2023-02-26T17:39:59;8.00;;;3.63;;
21148;SDS011;10732;51.472;6.466;2023-02-26T17:42:26;7.03;;;4.03;;
21148;SDS011;10732;51.472;6.466;2023-02-26T17:44:52;8.00;;;4.13;;
21148;SDS011;10732;51.472;6.466;2023-02-26T17:47:22;5.10;;;2.83;;
21148;SDS011;10732;51.472;6.466;2023-02-26T17:49:49;6.03;;;3.23;;
21148;SDS011;10732;51.472;6.466;2023-02-26T17:52:15;3.70;;;2.77;;
21148;SDS011;10732;51.472;6.466;2023-02-26T17:54:41;5.47;;;2.45;;
21148;SDS011;10732;51.472;6.466;2023-02-26T17:57:17;2.40;;;1.83;;
21148;SDS011;10732;51.472;6.466;2023-02-26T17:59:45;4.73;;;2.50;;